createdAt,value
2019-01-17T00:04:38.923Z,28.10
2019-01-17T00:08:54.620Z,27.20
2019-01-17T00:13:09.998Z,25.83
2019-01-17T00:17:33.512Z,29.20
2019-01-17T00:21:57.651Z,24.93
2019-01-17T00:26:12.585Z,21.73
2019-01-17T00:30:39.543Z,23.17
2019-01-17T00:35:06.334Z,21.67
2019-01-17T00:39:29.236Z,20.60
2019-01-17T00:43:56.796Z,27.63
2019-01-17T00:48:23.886Z,24.93
2019-01-17T00:52:47.915Z,21.50
2019-01-17T00:57:14.752Z,23.97
2019-01-17T01:01:37.557Z,20.87
2019-01-17T01:05:52.527Z,20.90
2019-01-17T01:10:22.711Z,25.30
2019-01-17T01:14:44.075Z,20.40
2019-01-17T01:19:11.746Z,19.63
2019-01-17T01:23:39.113Z,22.27
2019-01-17T01:28:08.107Z,23.10
2019-01-17T01:32:40.970Z,19.33
2019-01-17T01:37:03.723Z,23.63
2019-01-17T01:41:18.221Z,23.17
2019-01-17T01:45:39.078Z,22.50
2019-01-17T01:49:51.824Z,20.20
2019-01-17T01:53:56.925Z,24.90
2019-01-17T01:58:02.084Z,22.00
2019-01-17T02:02:07.238Z,21.47
2019-01-17T02:06:12.349Z,20.63
2019-01-17T02:10:17.413Z,20.90
2019-01-17T02:14:22.457Z,22.70
2019-01-17T02:18:27.603Z,19.33
2019-01-17T02:22:32.769Z,20.13
2019-01-17T02:26:37.904Z,20.83
2019-01-17T02:30:42.879Z,20.23
2019-01-17T02:34:48.944Z,23.13
2019-01-17T02:38:54.077Z,23.27
2019-01-17T02:42:59.126Z,25.43
2019-01-17T02:47:04.096Z,28.83
2019-01-17T02:51:09.014Z,26.30
2019-01-17T02:55:14.070Z,26.80
2019-01-17T02:59:19.197Z,28.13
2019-01-17T03:03:24.338Z,27.03
2019-01-17T03:07:29.378Z,28.43
2019-01-17T03:11:34.395Z,28.97
2019-01-17T03:15:39.446Z,28.63
2019-01-17T03:19:44.572Z,26.53
2019-01-17T03:23:49.677Z,29.57
2019-01-17T03:27:54.929Z,31.87
2019-01-17T03:31:59.958Z,29.60
2019-01-17T03:36:05.039Z,36.67
2019-01-17T03:40:12.041Z,35.93
2019-01-17T03:44:17.071Z,31.87
2019-01-17T03:48:22.229Z,35.80
2019-01-17T03:52:27.362Z,34.87
2019-01-17T03:56:32.636Z,33.47
2019-01-17T04:00:37.766Z,32.17
2019-01-17T04:04:42.936Z,33.43
2019-01-17T04:08:47.889Z,32.00
2019-01-17T04:12:52.986Z,28.47
2019-01-17T04:16:58.054Z,32.10
2019-01-17T04:21:03.207Z,30.60
2019-01-17T04:25:08.767Z,31.20
2019-01-17T04:29:13.825Z,31.83
2019-01-17T04:33:18.935Z,32.80
2019-01-17T04:37:23.974Z,37.03
2019-01-17T04:41:29.286Z,35.97
2019-01-17T04:45:34.336Z,35.23
2019-01-17T04:49:39.370Z,31.43
2019-01-17T04:53:44.399Z,37.33
2019-01-17T04:57:49.408Z,35.70
2019-01-17T05:01:54.513Z,33.57
2019-01-17T05:05:59.683Z,34.63
2019-01-17T05:10:05.397Z,33.57
2019-01-17T05:14:10.482Z,34.70
2019-01-17T05:18:15.508Z,32.83
2019-01-17T05:22:20.655Z,35.20
2019-01-17T05:26:25.804Z,35.93
2019-01-17T05:30:30.946Z,33.47
2019-01-17T05:34:39.605Z,30.33
2019-01-17T05:38:42.926Z,36.57
2019-01-17T05:42:48.894Z,32.73
2019-01-17T05:46:54.040Z,33.93
2019-01-17T05:50:59.060Z,32.30
2019-01-17T05:55:04.784Z,36.77
2019-01-17T05:59:09.781Z,36.00
2019-01-17T06:03:14.872Z,36.93
2019-01-17T06:07:19.935Z,34.00
2019-01-17T06:11:25.100Z,33.90
2019-01-17T06:15:30.624Z,32.77
2019-01-17T06:19:35.704Z,34.27
2019-01-17T06:23:41.494Z,32.60
2019-01-17T06:27:46.617Z,28.43
2019-01-17T06:31:51.644Z,36.13
2019-01-17T06:35:56.700Z,32.10
2019-01-17T06:40:01.749Z,33.33
2019-01-17T06:44:06.773Z,28.33
2019-01-17T06:48:11.849Z,28.97
2019-01-17T06:52:16.891Z,29.37
2019-01-17T06:56:21.951Z,26.23
2019-01-17T07:00:27.100Z,29.73
2019-01-17T07:04:32.100Z,29.70
2019-01-17T07:08:37.162Z,25.73
2019-01-17T07:12:42.219Z,30.67
2019-01-17T07:16:47.270Z,25.87
2019-01-17T07:20:52.419Z,30.20
2019-01-17T07:24:57.462Z,30.77
2019-01-17T07:29:02.600Z,29.03
2019-01-17T07:33:07.663Z,29.75
2019-01-17T07:37:12.791Z,38.73
2019-01-17T07:41:17.800Z,30.77
2019-01-17T07:45:25.725Z,29.20
2019-01-17T07:49:31.985Z,24.83
2019-01-17T07:53:37.095Z,24.53
2019-01-17T07:57:42.709Z,19.17
2019-01-17T08:01:47.718Z,18.80
2019-01-17T08:05:52.736Z,17.70
2019-01-17T08:09:57.764Z,16.83
2019-01-17T08:14:04.222Z,14.63
2019-01-17T08:18:09.713Z,15.47
2019-01-17T08:22:14.739Z,14.53
2019-01-17T08:26:19.839Z,13.30
2019-01-17T08:30:26.889Z,14.60
2019-01-17T08:34:31.910Z,12.90
2019-01-17T08:38:37.012Z,10.93
2019-01-17T08:42:43.008Z,10.57
2019-01-17T08:46:47.942Z,9.27
2019-01-17T08:50:53.868Z,10.37
2019-01-17T08:54:58.880Z,9.67
2019-01-17T08:59:03.950Z,6.63
2019-01-17T09:03:09.093Z,7.23
2019-01-17T09:07:14.184Z,4.80
2019-01-17T09:11:19.186Z,4.77
2019-01-17T09:15:26.450Z,5.50
2019-01-17T09:19:31.554Z,10.70
2019-01-17T09:23:36.648Z,6.93
2019-01-17T09:27:41.756Z,6.90
2019-01-17T09:31:46.751Z,7.63
2019-01-17T09:35:51.783Z,7.27
2019-01-17T09:39:56.896Z,7.27
2019-01-17T09:44:01.912Z,7.63
2019-01-17T09:48:06.934Z,9.43
2019-01-17T09:52:15.186Z,8.33
2019-01-17T09:56:20.183Z,5.47
2019-01-17T10:00:27.456Z,9.40
2019-01-17T10:04:32.519Z,13.13
2019-01-17T10:08:37.619Z,6.17
2019-01-17T10:12:42.889Z,5.63
2019-01-17T10:17:34.548Z,7.28
2019-01-17T10:22:04.482Z,4.20
2019-01-17T10:26:22.319Z,4.20
2019-01-17T10:30:55.250Z,12.93
2019-01-17T10:35:33.009Z,5.87
2019-01-17T10:39:51.002Z,3.90
2019-01-17T10:44:17.123Z,4.13
2019-01-17T10:48:46.054Z,4.93
2019-01-17T10:53:40.763Z,8.07
2019-01-17T10:58:03.883Z,9.73
2019-01-17T11:03:01.749Z,9.93
2019-01-17T11:07:29.330Z,9.03
2019-01-17T11:12:15.228Z,8.53
2019-01-17T11:17:12.056Z,9.18
2019-01-17T11:21:56.943Z,11.10
2019-01-17T11:26:37.389Z,9.07
2019-01-17T11:31:23.465Z,9.47
2019-01-17T11:35:55.556Z,8.70
2019-01-17T11:40:31.657Z,11.83
2019-01-17T11:44:54.323Z,10.60
2019-01-17T11:49:45.089Z,12.77
2019-01-17T11:54:25.105Z,6.77
2019-01-17T11:59:10.555Z,6.43
2019-01-17T12:04:01.086Z,12.75
2019-01-17T12:08:06.069Z,5.03
2019-01-17T12:12:13.143Z,8.40
2019-01-17T12:16:18.195Z,11.03
2019-01-17T12:20:23.296Z,14.27
2019-01-17T12:24:28.437Z,12.83
2019-01-17T12:28:33.534Z,13.43
2019-01-17T12:32:38.822Z,7.20
2019-01-17T12:36:43.971Z,16.33
2019-01-17T12:40:49.106Z,17.33
2019-01-17T12:44:54.256Z,14.23
2019-01-17T12:48:59.170Z,16.00
2019-01-17T12:53:04.242Z,17.00
2019-01-17T12:57:09.518Z,15.63
2019-01-17T13:01:16.156Z,12.47
2019-01-17T13:05:21.611Z,11.07
2019-01-17T13:09:26.863Z,9.57
2019-01-17T13:13:31.913Z,10.93
2019-01-17T13:17:36.961Z,8.03
2019-01-17T13:21:42.322Z,7.90
2019-01-17T13:25:47.394Z,8.17
2019-01-17T13:29:52.431Z,7.57
2019-01-17T13:33:57.825Z,4.60
2019-01-17T13:38:02.889Z,4.57
2019-01-17T13:42:07.956Z,6.23
2019-01-17T13:46:13.087Z,5.70
2019-01-17T13:50:18.440Z,3.70
2019-01-17T13:54:23.512Z,3.47
2019-01-17T13:58:28.528Z,5.67
2019-01-17T14:02:34.382Z,4.80
2019-01-17T14:06:39.496Z,4.63
2019-01-17T14:10:44.674Z,6.80
2019-01-17T14:14:49.749Z,4.47
2019-01-17T14:18:54.732Z,4.60
2019-01-17T14:22:59.741Z,6.50
2019-01-17T14:27:04.786Z,6.93
2019-01-17T14:31:09.846Z,5.93
2019-01-17T14:35:14.834Z,6.30
2019-01-17T14:39:19.987Z,6.30
2019-01-17T14:43:26.649Z,8.77
2019-01-17T14:47:31.674Z,6.60
2019-01-17T14:51:36.872Z,6.33
2019-01-17T14:55:43.179Z,7.53
2019-01-17T14:59:48.375Z,5.20
2019-01-17T15:03:53.515Z,6.03
2019-01-17T15:07:58.560Z,5.13
2019-01-17T15:12:03.594Z,9.30
2019-01-17T15:16:08.668Z,6.33
2019-01-17T15:20:17.685Z,6.23
2019-01-17T15:24:22.659Z,11.53
2019-01-17T15:28:27.784Z,11.17
2019-01-17T15:32:32.842Z,9.70
2019-01-17T15:36:38.041Z,11.53
2019-01-17T15:40:43.097Z,10.33
2019-01-17T15:44:48.142Z,11.67
2019-01-17T15:48:57.848Z,7.87
2019-01-17T15:53:02.985Z,5.23
2019-01-17T15:57:08.207Z,10.70
2019-01-17T16:01:16.847Z,10.50
2019-01-17T16:05:21.990Z,10.93
2019-01-17T16:09:27.076Z,7.20
2019-01-17T16:13:32.208Z,8.77
2019-01-17T16:17:37.278Z,11.67
2019-01-17T16:21:42.399Z,7.53
2019-01-17T16:25:47.917Z,7.40
2019-01-17T16:29:53.027Z,9.83
2019-01-17T16:33:58.370Z,5.83
2019-01-17T16:38:03.734Z,9.03
2019-01-17T16:42:08.697Z,11.70
2019-01-17T16:46:13.951Z,12.70
2019-01-17T16:50:21.569Z,10.00
2019-01-17T16:54:26.790Z,11.57
2019-01-17T16:58:31.861Z,12.17
2019-01-17T17:02:39.284Z,14.53
2019-01-17T17:06:44.303Z,11.50
2019-01-17T17:10:50.723Z,13.25
2019-01-17T17:14:55.749Z,11.90
2019-01-17T17:19:00.800Z,10.43
2019-01-17T17:23:06.194Z,19.93
2019-01-17T17:27:11.170Z,12.63
2019-01-17T17:31:16.234Z,14.37
2019-01-17T17:35:21.337Z,11.60
2019-01-17T17:39:27.866Z,10.87
2019-01-17T17:43:33.677Z,9.40
2019-01-17T17:47:40.094Z,16.53
2019-01-17T17:51:46.094Z,16.10
2019-01-17T17:55:52.168Z,16.43
2019-01-17T17:59:58.903Z,20.48
2019-01-17T18:04:05.124Z,21.53
2019-01-17T18:08:11.869Z,23.47
2019-01-17T18:12:17.788Z,29.60
2019-01-17T18:16:23.541Z,21.43
2019-01-17T18:20:30.429Z,32.73
2019-01-17T18:24:36.178Z,39.30
2019-01-17T18:28:42.561Z,29.40
2019-01-17T18:32:48.382Z,29.90
2019-01-17T18:36:54.206Z,34.07
2019-01-17T18:41:02.230Z,29.80
2019-01-17T18:45:09.851Z,33.23
2019-01-17T18:49:15.776Z,33.87
2019-01-17T18:53:20.864Z,38.80
2019-01-17T18:57:25.933Z,41.80
2019-01-17T19:01:31.108Z,53.17
2019-01-17T19:05:36.245Z,32.90
2019-01-17T19:09:41.511Z,36.87
2019-01-17T19:13:48.212Z,26.83
2019-01-17T19:17:53.395Z,28.60
2019-01-17T19:21:58.506Z,27.37
2019-01-17T19:26:03.639Z,32.60
2019-01-17T19:30:12.147Z,31.27
2019-01-17T19:34:17.394Z,32.20
2019-01-17T19:38:22.547Z,29.63
2019-01-17T19:42:28.970Z,37.77
2019-01-17T19:46:34.143Z,33.97
2019-01-17T19:50:39.899Z,32.90
2019-01-17T19:54:44.852Z,37.97
2019-01-17T19:58:50.263Z,53.03
2019-01-17T20:02:55.450Z,44.40
2019-01-17T20:07:00.764Z,49.80
2019-01-17T20:11:06.968Z,46.57
2019-01-17T20:15:12.357Z,54.30
2019-01-17T20:19:17.518Z,57.07
2019-01-17T20:23:23.045Z,52.93
2019-01-17T20:27:28.230Z,43.50
2019-01-17T20:31:33.317Z,32.67
2019-01-17T20:35:38.578Z,29.43
2019-01-17T20:39:45.175Z,29.33
2019-01-17T20:43:50.495Z,28.20
2019-01-17T20:47:55.746Z,28.13
2019-01-17T20:52:01.807Z,27.80
2019-01-17T20:56:07.034Z,160.90
2019-01-17T21:00:16.673Z,27.67
2019-01-17T21:04:21.859Z,28.27
2019-01-17T21:08:27.031Z,32.43
2019-01-17T21:12:32.111Z,34.07
2019-01-17T21:16:37.227Z,38.53
2019-01-17T21:20:42.240Z,28.73
2019-01-17T21:24:47.682Z,32.87
2019-01-17T21:28:52.850Z,37.13
2019-01-17T21:32:58.028Z,35.23
2019-01-17T21:37:04.059Z,34.33
2019-01-17T21:41:09.251Z,33.10
2019-01-17T21:45:15.670Z,32.77
2019-01-17T21:49:20.956Z,26.23
2019-01-17T21:53:26.736Z,30.70
2019-01-17T21:57:31.807Z,89.40
2019-01-17T22:01:36.911Z,48.47
2019-01-17T22:05:42.620Z,34.47
2019-01-17T22:09:49.140Z,31.37
2019-01-17T22:13:54.298Z,27.10
2019-01-17T22:17:59.425Z,28.23
2019-01-17T22:22:04.505Z,34.33
2019-01-17T22:26:10.695Z,30.30
2019-01-17T22:30:21.014Z,29.03
2019-01-17T22:34:26.086Z,26.57
2019-01-17T22:38:31.290Z,33.23
2019-01-17T22:42:36.595Z,30.93
2019-01-17T22:46:41.696Z,29.85
2019-01-17T22:50:46.859Z,30.77
2019-01-17T22:54:52.031Z,28.40
2019-01-17T22:58:57.138Z,28.90
2019-01-17T23:03:02.214Z,27.73
2019-01-17T23:07:07.309Z,25.67
2019-01-17T23:11:12.507Z,32.80
2019-01-17T23:15:17.588Z,31.93
2019-01-17T23:19:22.768Z,35.97
2019-01-17T23:23:27.830Z,29.13
2019-01-17T23:27:33.178Z,31.73
2019-01-17T23:31:38.339Z,30.87
2019-01-17T23:35:43.532Z,29.17
2019-01-17T23:39:48.979Z,32.40
2019-01-17T23:43:54.636Z,28.00
2019-01-17T23:48:00.042Z,29.53
2019-01-17T23:52:05.485Z,29.03
2019-01-17T23:56:10.582Z,24.30
